createdAt,value
2019-04-04T00:22:58.773Z,9.93
2019-04-04T00:25:46.955Z,9.05
2019-04-04T01:05:19.295Z,9.45
2019-04-04T01:08:07.530Z,9.88
2019-04-04T01:10:55.124Z,10.50
2019-04-04T05:20:37.954Z,7.33
2019-04-04T07:23:48.538Z,7.40
2019-04-04T08:07:03.888Z,7.12
2019-04-04T08:19:06.500Z,6.75
2019-04-04T08:21:53.720Z,6.85
2019-04-04T08:24:40.090Z,7.37
2019-04-04T08:27:26.777Z,7.03
2019-04-04T08:30:12.050Z,7.15
2019-04-04T08:45:15.838Z,7.37
2019-04-04T08:48:02.391Z,7.10
2019-04-04T08:50:50.500Z,7.25
2019-04-04T09:55:41.711Z,15.70
2019-04-04T11:37:16.993Z,6.50
2019-04-04T12:11:16.057Z,5.97
2019-04-04T12:26:18.676Z,4.92
2019-04-04T12:29:06.736Z,5.05
2019-04-04T13:20:40.646Z,4.45
2019-04-04T13:23:28.233Z,4.03
2019-04-04T13:26:14.703Z,4.12
2019-04-04T13:29:02.096Z,4.78
2019-04-04T13:31:48.496Z,4.42
2019-04-04T13:34:35.149Z,5.03
2019-04-04T13:37:21.634Z,3.87
2019-04-04T13:40:08.218Z,4.47
2019-04-04T13:42:54.626Z,4.58
2019-04-04T13:45:42.086Z,4.28
2019-04-04T13:48:28.724Z,4.30
2019-04-04T13:51:15.173Z,4.20
2019-04-04T13:54:01.668Z,4.62
2019-04-04T13:56:48.125Z,4.08
2019-04-04T13:59:35.138Z,4.50
2019-04-04T14:02:22.537Z,4.40
2019-04-04T14:08:01.414Z,4.00
2019-04-04T14:10:57.556Z,5.03
2019-04-04T14:13:37.717Z,3.87
2019-04-04T14:19:16.083Z,4.10
2019-04-04T14:22:02.501Z,4.58
2019-04-04T14:24:49.583Z,4.28
2019-04-04T14:27:36.482Z,5.00
2019-04-04T14:30:22.913Z,4.30
2019-04-04T14:33:09.645Z,4.62
2019-04-04T14:35:56.098Z,4.70
2019-04-04T14:38:42.698Z,4.33
2019-04-04T14:41:29.245Z,4.40
2019-04-04T14:44:16.720Z,4.30
2019-04-04T14:47:04.091Z,4.03
2019-04-04T14:49:51.443Z,4.08
2019-04-04T14:52:39.600Z,4.15
2019-04-04T14:55:27.038Z,3.58
2019-04-04T15:01:02.704Z,3.65
2019-04-04T15:03:49.369Z,4.47
2019-04-04T15:06:36.835Z,3.65
2019-04-04T15:12:13.385Z,4.58
2019-04-04T15:14:59.906Z,5.65
2019-04-04T15:17:46.570Z,5.08
2019-04-04T15:20:33.848Z,5.08
2019-04-04T15:23:20.368Z,4.20
2019-04-04T15:26:09.674Z,4.65
2019-04-04T15:34:28.320Z,4.75
2019-04-04T15:37:15.706Z,4.30
2019-04-04T15:40:03.966Z,4.78
2019-04-04T15:42:50.430Z,4.67
2019-04-04T15:45:34.857Z,4.60
2019-04-04T16:19:09.892Z,5.10
2019-04-04T16:21:58.032Z,4.97
2019-04-04T16:24:46.153Z,4.85
2019-04-04T18:58:13.156Z,12.50
2019-04-04T19:03:37.401Z,12.73
2019-04-04T19:21:32.648Z,15.45
2019-04-04T19:24:20.922Z,17.02
2019-04-04T19:39:16.435Z,19.27
2019-04-04T19:42:05.094Z,19.52
2019-04-04T23:55:02.149Z,21.17
